ADDS METAR Data INFO
IDs: Format: Raw Decoded Include TAF

Data at: 0846 UTC 27 Jun 2017

K5T9 270835Z AUTO 05004KT 10SM FEW022 BKN029 OVC075 24/22 A3000 RMK A01
K5T9 270815Z AUTO 07004KT 10SM BKN023 BKN028 OVC065 24/22 A3000 RMK A01
K5T9 270755Z AUTO 08003KT 10SM BKN023 BKN030 OVC036 24/22 A3001 RMK A01
K5T9 270735Z AUTO 09004KT 10SM 24/22 A3002 RMK A01
K5T9 270715Z AUTO 02003KT 24/22 A3003 RMK A01
K5T9 270455Z AUTO A3001 RMK A01
K5T9 270435Z AUTO 11008KT 10SM BKN060 OVC075 25/21 A3001 RMK A01
K5T9 270415Z AUTO 11007KT 10SM BKN060 25/21 A3000 RMK A01
K5T9 270355Z AUTO 10006KT 10SM SCT055 BKN110 25/22 A2999 RMK A01
K5T9 270335Z AUTO 10SM SCT060 SCT075 OVC110 25/23 A2998 RMK A01
K5T9 270315Z AUTO 10SM 24/22 A2998 RMK A01
K5T9 270255Z AUTO 25/22 A2998 RMK A01
K5T9 270235Z AUTO 3SM HZ 25/23 A2998 RMK A01
K5T9 270135Z AUTO 12008G17KT 10SM BKN065 OVC075 32/19 A2994 RMK A01
K5T9 270115Z AUTO 11005KT 10SM OVC065 33/18 A2993 RMK A01
K5T9 270055Z AUTO 00000KT 10SM SCT065 SCT075 33/18 A2993 RMK A01
K5T9 270035Z AUTO 14004KT 10SM FEW065 33/18 A2992 RMK A01
K5T9 270015Z AUTO 11007KT 10SM BKN065 34/18 A2992 RMK A01
K5T9 262355Z AUTO 10007KT 10SM SCT060 SCT070 34/18 A2992 RMK A01
K5T9 262335Z AUTO VRB05KT 10SM CLR 34/18 A2992 RMK A01
K5T9 262315Z AUTO 16005KT 10SM CLR 35/18 A2993 RMK A01
K5T9 262255Z AUTO 13006KT 10SM CLR 34/18 A2993 RMK A01
K5T9 262235Z AUTO 00000KT 10SM FEW055 FEW070 34/18 A2994 RMK A01
K5T9 262215Z AUTO 10007KT 10SM SCT055 SCT065 BKN095 33/19 A2994 RMK A01
K5T9 262155Z AUTO VRB05G11KT 10SM SCT055 BKN095 33/19 A2995 RMK A01
K5T9 262135Z AUTO 17008G14KT 130V240 10SM BKN055 BKN080 34/19 A2996 RMK A01
K5T9 262115Z AUTO 12007G13KT 100V160 10SM SCT050 SCT065 BKN075 34/19 A2997 RMK A01
K5T9 262055Z AUTO 19007KT 150V220 10SM SCT050 BKN075 BKN085 33/20 A2998 RMK A01
K5T9 262035Z AUTO VRB04G12KT 10SM FEW110 34/20 A2999 RMK A01
K5T9 262015Z AUTO VRB06KT 10SM SCT049 SCT065 BKN100 32/20 A3000 RMK A01
K5T9 261955Z AUTO VRB06G12KT 10SM SCT049 BKN060 32/20 A3001 RMK A01
K5T9 261935Z AUTO 07007KT 10SM FEW060 FEW075 FEW090 33/20 A3001 RMK A01
K5T9 261915Z AUTO 14006KT 10SM FEW046 FEW065 SCT085 33/20 A3002 RMK A01
K5T9 261855Z AUTO 00000KT 10SM FEW049 SCT080 31/20 A3003 RMK A01
K5T9 261835Z AUTO 11007KT 050V180 10SM FEW050 FEW060 32/20 A3004 RMK A01
K5T9 261815Z AUTO 10007KT 070V150 10SM FEW045 FEW055 32/20 A3005 RMK A01
K5T9 261755Z AUTO 00000KT 10SM FEW037 FEW045 FEW080 32/20 A3007 RMK A01
K5T9 261735Z AUTO 00000G10KT 10SM SCT036 SCT045 SCT055 31/20 A3007 RMK A01
K5T9 261715Z AUTO 00000KT 10SM CLR 31/21 A3008 RMK A01
K5T9 261655Z AUTO VRB04G10KT 10SM FEW049 FEW060 FEW085 30/21 A3009 RMK A01
K5T9 261635Z AUTO VRB05KT 10SM FEW028 SCT049 BKN085 29/21 A3010 RMK A01
K5T9 261615Z AUTO 14004KT 10SM FEW060 29/21 A3010 RMK A01
K5T9 261555Z AUTO VRB04KT 10SM 29/22 A3011 RMK A01
K5T9 261535Z AUTO 06006KT A3011 RMK A01
K5T9 252255Z AUTO 06008KT 10SM FEW065 SCT095 34/18 A3002 RMK A01
K5T9 252235Z AUTO VRB04KT 10SM CLR 35/19 A3002 RMK A01
K5T9 252215Z AUTO 00000KT 10SM FEW085 FEW100 34/19 A3003 RMK A01
K5T9 252155Z AUTO VRB05KT 10SM FEW090 34/19 A3004 RMK A01
K5T9 252135Z AUTO VRB03KT 10SM FEW050 35/20 A3005 RMK A01
K5T9 252115Z AUTO 00000KT 10SM CLR 34/19 A3005 RMK A01
K5T9 252055Z AUTO VRB06KT 10SM FEW050 FEW055 34/20 A3006 RMK A01


Page loaded:  08:46 UTC  |   01:46 AM Pacific  |   02:46 AM Mountain  |   03:46 AM Central  |   04:46 AM Eastern

 

ADVISORIES

FORECASTS

FORECASTS

OBSERVATIONS

USER TOOLS

ABOUT US